sensor_id;sensor_type;location;lat;lon;timestamp;pressure;altitude;pressure_sealevel;temperature;humidity
27643;BME280;15053;48.618;10.024;2023-06-22T00:01:19;94392.88;;;20.78;89.27
27643;BME280;15053;48.618;10.024;2023-06-22T00:03:47;94405.00;;;20.79;88.94
27643;BME280;15053;48.618;10.024;2023-06-22T00:06:14;94410.31;;;20.79;88.79
27643;BME280;15053;48.618;10.024;2023-06-22T00:08:41;94398.16;;;20.78;88.70
27643;BME280;15053;48.618;10.024;2023-06-22T00:11:07;94404.25;;;20.79;88.64
27643;BME280;15053;48.618;10.024;2023-06-22T00:13:34;94405.69;;;20.76;88.62
27643;BME280;15053;48.618;10.024;2023-06-22T00:16:00;94408.34;;;20.76;88.47
27643;BME280;15053;48.618;10.024;2023-06-22T00:18:27;94403.38;;;20.75;88.59
27643;BME280;15053;48.618;10.024;2023-06-22T00:20:55;94396.50;;;20.70;88.69
27643;BME280;15053;48.618;10.024;2023-06-22T00:23:25;94403.31;;;20.71;88.47
27643;BME280;15053;48.618;10.024;2023-06-22T00:25:52;94410.13;;;20.72;88.63
27643;BME280;15053;48.618;10.024;2023-06-22T00:28:19;94412.78;;;20.72;88.15
27643;BME280;15053;48.618;10.024;2023-06-22T00:30:45;94411.69;;;20.73;88.13
27643;BME280;15053;48.618;10.024;2023-06-22T00:33:12;94410.91;;;20.73;88.27
27643;BME280;15053;48.618;10.024;2023-06-22T00:35:39;94409.38;;;20.72;88.33
27643;BME280;15053;48.618;10.024;2023-06-22T00:38:07;94407.84;;;20.71;87.98
27643;BME280;15053;48.618;10.024;2023-06-22T00:40:35;94399.81;;;20.67;87.98
27643;BME280;15053;48.618;10.024;2023-06-22T00:43:01;94405.53;;;20.69;87.79
27643;BME280;15053;48.618;10.024;2023-06-22T00:45:28;94399.41;;;20.65;87.90
27643;BME280;15053;48.618;10.024;2023-06-22T00:47:57;94399.81;;;20.67;88.17
27643;BME280;15053;48.618;10.024;2023-06-22T00:50:25;94403.94;;;20.65;87.51
27643;BME280;15053;48.618;10.024;2023-06-22T00:52:55;94405.72;;;20.60;87.72
27643;BME280;15053;48.618;10.024;2023-06-22T00:55:25;94406.09;;;20.59;87.82
27643;BME280;15053;48.618;10.024;2023-06-22T00:57:52;94397.03;;;20.60;87.66
27643;BME280;15053;48.618;10.024;2023-06-22T01:00:24;94401.19;;;20.61;87.69
27643;BME280;15053;48.618;10.024;2023-06-22T01:02:52;94398.13;;;20.59;87.89
27643;BME280;15053;48.618;10.024;2023-06-22T01:05:21;94389.19;;;20.48;87.85
27643;BME280;15053;48.618;10.024;2023-06-22T01:10:49;94401.47;;;20.56;87.60
27643;BME280;15053;48.618;10.024;2023-06-22T01:15:55;94398.34;;;20.50;87.65
27643;BME280;15053;48.618;10.024;2023-06-22T01:18:24;94406.28;;;20.50;87.84
27643;BME280;15053;48.618;10.024;2023-06-22T01:20:53;94412.75;;;20.53;87.61
27643;BME280;15053;48.618;10.024;2023-06-22T01:29:24;94397.84;;;20.45;87.78
27643;BME280;15053;48.618;10.024;2023-06-22T01:31:54;94399.78;;;20.48;88.07
27643;BME280;15053;48.618;10.024;2023-06-22T01:34:21;94406.53;;;20.45;87.92
27643;BME280;15053;48.618;10.024;2023-06-22T01:36:50;94403.47;;;20.43;87.91
27643;BME280;15053;48.618;10.024;2023-06-22T01:39:18;94403.47;;;20.43;88.04
27643;BME280;15053;48.618;10.024;2023-06-22T01:41:45;94398.19;;;20.43;87.85
27643;BME280;15053;48.618;10.024;2023-06-22T01:44:15;94402.69;;;20.43;87.97
27643;BME280;15053;48.618;10.024;2023-06-22T01:46:41;94399.28;;;20.42;87.77
27643;BME280;15053;48.618;10.024;2023-06-22T01:49:08;94395.53;;;20.43;87.87
27643;BME280;15053;48.618;10.024;2023-06-22T01:51:35;94392.91;;;20.43;87.68
27643;BME280;15053;48.618;10.024;2023-06-22T01:54:02;94394.41;;;20.44;87.53
27643;BME280;15053;48.618;10.024;2023-06-22T01:56:29;94400.47;;;20.45;87.37
27643;BME280;15053;48.618;10.024;2023-06-22T01:59:09;94389.47;;;20.43;87.47
27643;BME280;15053;48.618;10.024;2023-06-22T02:01:49;94386.06;;;20.42;87.18
27643;BME280;15053;48.618;10.024;2023-06-22T02:04:27;94384.44;;;20.38;87.42
27643;BME280;15053;48.618;10.024;2023-06-22T02:06:58;94383.94;;;20.32;87.44
27643;BME280;15053;48.618;10.024;2023-06-22T02:09:29;94392.72;;;20.36;87.33
27643;BME280;15053;48.618;10.024;2023-06-22T02:11:56;94391.94;;;20.36;87.06
27643;BME280;15053;48.618;10.024;2023-06-22T02:14:24;94404.44;;;20.35;87.13
27643;BME280;15053;48.618;10.024;2023-06-22T02:16:51;94396.81;;;20.34;87.14
27643;BME280;15053;48.618;10.024;2023-06-22T02:19:22;94401.00;;;20.35;86.57
27643;BME280;15053;48.618;10.024;2023-06-22T02:21:49;94401.00;;;20.35;86.68
27643;BME280;15053;48.618;10.024;2023-06-22T02:24:16;94400.56;;;20.33;86.72
27643;BME280;15053;48.618;10.024;2023-06-22T02:26:43;94400.25;;;20.34;86.54
27643;BME280;15053;48.618;10.024;2023-06-22T02:29:11;94411.59;;;20.35;86.42
27643;BME280;15053;48.618;10.024;2023-06-22T02:31:38;94418.75;;;20.34;86.59
27643;BME280;15053;48.618;10.024;2023-06-22T02:34:04;94415.34;;;20.34;86.32
27643;BME280;15053;48.618;10.024;2023-06-22T02:36:31;94419.44;;;20.31;86.32
27643;BME280;15053;48.618;10.024;2023-06-22T02:39:00;94425.09;;;20.30;86.36
27643;BME280;15053;48.618;10.024;2023-06-22T02:41:29;94428.84;;;20.29;86.48
27643;BME280;15053;48.618;10.024;2023-06-22T02:43:55;94420.47;;;20.27;86.52
27643;BME280;15053;48.618;10.024;2023-06-22T02:46:22;94416.28;;;20.26;86.32
27643;BME280;15053;48.618;10.024;2023-06-22T02:48:49;94413.19;;;20.24;86.25
27643;BME280;15053;48.618;10.024;2023-06-22T02:51:16;94403.72;;;20.23;85.97
27643;BME280;15053;48.618;10.024;2023-06-22T02:53:42;94402.19;;;20.22;86.04
27643;BME280;15053;48.618;10.024;2023-06-22T02:56:13;94396.88;;;20.22;85.60
27643;BME280;15053;48.618;10.024;2023-06-22T02:58:39;94396.06;;;20.18;86.21
27643;BME280;15053;48.618;10.024;2023-06-22T03:01:09;94396.13;;;20.21;86.02
27643;BME280;15053;48.618;10.024;2023-06-22T03:03:36;94400.66;;;20.21;86.07
27643;BME280;15053;48.618;10.024;2023-06-22T03:06:03;94402.13;;;20.18;86.01
27643;BME280;15053;48.618;10.024;2023-06-22T03:08:30;94398.59;;;20.14;85.94
27643;BME280;15053;48.618;10.024;2023-06-22T03:10:57;94405.34;;;20.12;86.12
27643;BME280;15053;48.618;10.024;2023-06-22T03:13:23;94402.69;;;20.12;86.09
27643;BME280;15053;48.618;10.024;2023-06-22T03:15:50;94405.34;;;20.12;85.89
27643;BME280;15053;48.618;10.024;2023-06-22T03:18:16;94411.06;;;20.14;85.95
27643;BME280;15053;48.618;10.024;2023-06-22T03:20:43;94398.97;;;20.13;85.70
27643;BME280;15053;48.618;10.024;2023-06-22T03:23:10;94391.44;;;20.15;85.74
27643;BME280;15053;48.618;10.024;2023-06-22T03:25:37;94390.66;;;20.14;85.60
27643;BME280;15053;48.618;10.024;2023-06-22T03:28:04;94396.72;;;20.15;85.53
27643;BME280;15053;48.618;10.024;2023-06-22T03:30:31;94391.84;;;20.17;85.60
27643;BME280;15053;48.618;10.024;2023-06-22T03:32:59;94393.81;;;20.20;85.38
27643;BME280;15053;48.618;10.024;2023-06-22T03:35:26;94394.59;;;20.20;85.52
27643;BME280;15053;48.618;10.024;2023-06-22T03:37:53;94401.34;;;20.18;85.69
27643;BME280;15053;48.618;10.024;2023-06-22T03:40:20;94398.59;;;20.14;85.56
27643;BME280;15053;48.618;10.024;2023-06-22T03:42:46;94390.66;;;20.14;85.67
27643;BME280;15053;48.618;10.024;2023-06-22T03:45:13;94384.59;;;20.14;85.89
27643;BME280;15053;48.618;10.024;2023-06-22T03:47:40;94391.44;;;20.15;85.90
27643;BME280;15053;48.618;10.024;2023-06-22T03:50:07;94393.31;;;20.14;86.22
27643;BME280;15053;48.618;10.024;2023-06-22T03:52:34;94397.41;;;20.12;86.09
27643;BME280;15053;48.618;10.024;2023-06-22T03:55:00;94392.13;;;20.12;86.47
27643;BME280;15053;48.618;10.024;2023-06-22T03:57:27;94396.22;;;20.09;86.23
27643;BME280;15053;48.618;10.024;2023-06-22T03:59:56;94387.47;;;20.05;86.73
27643;BME280;15053;48.618;10.024;2023-06-22T04:02:23;94386.94;;;19.99;86.62
27643;BME280;15053;48.618;10.024;2023-06-22T04:04:50;94392.66;;;20.01;86.95
27643;BME280;15053;48.618;10.024;2023-06-22T04:07:16;94389.81;;;19.94;86.75
27643;BME280;15053;48.618;10.024;2023-06-22T04:09:44;94404.69;;;19.99;87.11
27643;BME280;15053;48.618;10.024;2023-06-22T04:12:10;94412.25;;;20.00;87.00
27643;BME280;15053;48.618;10.024;2023-06-22T04:14:37;94404.69;;;19.99;86.94
27643;BME280;15053;48.618;10.024;2023-06-22T04:17:04;94405.88;;;20.01;87.16
27643;BME280;15053;48.618;10.024;2023-06-22T04:19:30;94400.59;;;20.01;86.88
27643;BME280;15053;48.618;10.024;2023-06-22T04:21:57;94389.59;;;19.99;86.97
27643;BME280;15053;48.618;10.024;2023-06-22T04:24:23;94390.69;;;19.98;87.29
27643;BME280;15053;48.618;10.024;2023-06-22T04:26:50;94392.66;;;20.01;87.21
27643;BME280;15053;48.618;10.024;2023-06-22T04:29:21;94377.88;;;20.00;87.13
27643;BME280;15053;48.618;10.024;2023-06-22T04:31:55;94381.97;;;19.98;87.05
27643;BME280;15053;48.618;10.024;2023-06-22T04:34:24;94367.56;;;19.95;87.30
27643;BME280;15053;48.618;10.024;2023-06-22T04:36:54;94376.78;;;20.01;87.37
27643;BME280;15053;48.618;10.024;2023-06-22T04:39:21;94369.28;;;20.03;87.24
27643;BME280;15053;48.618;10.024;2023-06-22T04:41:48;94365.59;;;20.08;87.35
27643;BME280;15053;48.618;10.024;2023-06-22T04:44:15;94371.75;;;20.12;87.28
27643;BME280;15053;48.618;10.024;2023-06-22T04:49:27;94374.13;;;20.17;86.90
27643;BME280;15053;48.618;10.024;2023-06-22T04:52:08;94368.91;;;20.21;86.88
27643;BME280;15053;48.618;10.024;2023-06-22T04:54:36;94368.56;;;20.22;86.54
27643;BME280;15053;48.618;10.024;2023-06-22T04:57:05;94363.03;;;20.27;86.73
27643;BME280;15053;48.618;10.024;2023-06-22T04:59:37;94360.47;;;20.31;86.56
27643;BME280;15053;48.618;10.024;2023-06-22T05:02:05;94345.72;;;20.30;86.24
27643;BME280;15053;48.618;10.024;2023-06-22T05:04:35;94351.94;;;20.37;86.18
27643;BME280;15053;48.618;10.024;2023-06-22T05:07:05;94348.59;;;20.40;85.87
27643;BME280;15053;48.618;10.024;2023-06-22T05:09:32;94358.91;;;20.45;85.69
27643;BME280;15053;48.618;10.024;2023-06-22T05:12:00;94343.44;;;20.47;85.63
27643;BME280;15053;48.618;10.024;2023-06-22T05:14:29;94345.47;;;20.54;85.41
27643;BME280;15053;48.618;10.024;2023-06-22T05:16:56;94338.38;;;20.58;85.58
27643;BME280;15053;48.618;10.024;2023-06-22T05:19:25;94343.38;;;20.63;85.33
27643;BME280;15053;48.618;10.024;2023-06-22T05:21:57;94336.72;;;20.69;85.18
27643;BME280;15053;48.618;10.024;2023-06-22T05:24:24;94333.44;;;20.76;84.81
27643;BME280;15053;48.618;10.024;2023-06-22T05:26:50;94333.16;;;20.81;84.60
27643;BME280;15053;48.618;10.024;2023-06-22T05:29:17;94327.94;;;20.84;84.30
27643;BME280;15053;48.618;10.024;2023-06-22T05:31:43;94322.44;;;20.93;84.15
27643;BME280;15053;48.618;10.024;2023-06-22T05:34:10;94327.44;;;20.98;83.77
27643;BME280;15053;48.618;10.024;2023-06-22T05:36:36;94328.63;;;21.00;83.51
27643;BME280;15053;48.618;10.024;2023-06-22T05:39:11;94331.44;;;21.07;83.37
27643;BME280;15053;48.618;10.024;2023-06-22T05:41:39;94323.19;;;21.12;83.21
27643;BME280;15053;48.618;10.024;2023-06-22T05:44:05;94325.13;;;21.15;82.95
27643;BME280;15053;48.618;10.024;2023-06-22T05:46:32;94327.50;;;21.21;82.50
27643;BME280;15053;48.618;10.024;2023-06-22T05:48:59;94325.75;;;21.28;82.53
27643;BME280;15053;48.618;10.024;2023-06-22T05:51:25;94331.06;;;21.28;82.44
27643;BME280;15053;48.618;10.024;2023-06-22T05:53:52;94317.44;;;21.30;82.34
27643;BME280;15053;48.618;10.024;2023-06-22T05:56:18;94328.19;;;21.37;82.41
27643;BME280;15053;48.618;10.024;2023-06-22T05:58:46;94327.94;;;21.45;81.95
27643;BME280;15053;48.618;10.024;2023-06-22T06:01:12;94319.72;;;21.50;81.62
27643;BME280;15053;48.618;10.024;2023-06-22T06:03:41;94318.53;;;21.48;81.03
27643;BME280;15053;48.618;10.024;2023-06-22T06:06:08;94319.25;;;21.45;80.88
27643;BME280;15053;48.618;10.024;2023-06-22T06:08:34;94316.94;;;21.43;81.20
27643;BME280;15053;48.618;10.024;2023-06-22T06:11:01;94320.72;;;21.42;80.74
27643;BME280;15053;48.618;10.024;2023-06-22T06:13:27;94321.59;;;21.50;80.66
27643;BME280;15053;48.618;10.024;2023-06-22T06:15:54;94317.94;;;21.58;80.14
27643;BME280;15053;48.618;10.024;2023-06-22T06:18:23;94321.84;;;21.64;79.78
27643;BME280;15053;48.618;10.024;2023-06-22T06:20:50;94323.47;;;21.72;79.45
27643;BME280;15053;48.618;10.024;2023-06-22T06:23:16;94320.94;;;21.79;79.28
27643;BME280;15053;48.618;10.024;2023-06-22T06:25:43;94323.28;;;21.84;79.10
27643;BME280;15053;48.618;10.024;2023-06-22T06:28:09;94324.53;;;21.90;79.27
27643;BME280;15053;48.618;10.024;2023-06-22T06:30:36;94314.78;;;21.98;78.87
27643;BME280;15053;48.618;10.024;2023-06-22T06:33:03;94316.69;;;21.97;78.24
27643;BME280;15053;48.618;10.024;2023-06-22T06:35:35;94308.47;;;22.06;78.08
27643;BME280;15053;48.618;10.024;2023-06-22T06:38:02;94306.25;;;22.08;77.97
27643;BME280;15053;48.618;10.024;2023-06-22T06:40:28;94312.78;;;22.14;78.00
27643;BME280;15053;48.618;10.024;2023-06-22T06:42:56;94312.09;;;22.20;77.47
27643;BME280;15053;48.618;10.024;2023-06-22T06:45:23;94319.75;;;22.25;77.01
27643;BME280;15053;48.618;10.024;2023-06-22T06:47:52;94313.78;;;22.32;77.15
27643;BME280;15053;48.618;10.024;2023-06-22T06:50:19;94307.03;;;22.38;76.80
27643;BME280;15053;48.618;10.024;2023-06-22T06:52:45;94307.13;;;22.45;76.53
27643;BME280;15053;48.618;10.024;2023-06-22T06:55:12;94300.00;;;22.53;76.17
27643;BME280;15053;48.618;10.024;2023-06-22T06:57:42;94302.03;;;22.63;75.76
27643;BME280;15053;48.618;10.024;2023-06-22T07:00:11;94301.03;;;22.71;75.46
27643;BME280;15053;48.618;10.024;2023-06-22T07:02:42;94307.25;;;22.82;75.15
27643;BME280;15053;48.618;10.024;2023-06-22T07:05:10;94301.28;;;22.92;74.55
27643;BME280;15053;48.618;10.024;2023-06-22T07:07:37;94291.09;;;22.98;73.48
27643;BME280;15053;48.618;10.024;2023-06-22T07:10:05;94293.06;;;23.04;72.92
27643;BME280;15053;48.618;10.024;2023-06-22T07:12:33;94301.50;;;23.13;72.52
27643;BME280;15053;48.618;10.024;2023-06-22T07:15:07;94299.69;;;23.24;71.96
27643;BME280;15053;48.618;10.024;2023-06-22T07:17:38;94295.19;;;23.28;72.20
27643;BME280;15053;48.618;10.024;2023-06-22T07:20:08;94306.38;;;23.44;71.64
27643;BME280;15053;48.618;10.024;2023-06-22T07:22:37;94287.44;;;23.49;71.26
27643;BME280;15053;48.618;10.024;2023-06-22T07:25:04;94288.69;;;23.63;71.26
27643;BME280;15053;48.618;10.024;2023-06-22T07:27:39;94286.47;;;23.72;70.65
27643;BME280;15053;48.618;10.024;2023-06-22T07:30:10;94280.03;;;23.76;69.92
27643;BME280;15053;48.618;10.024;2023-06-22T07:32:36;94285.81;;;23.85;69.40
27643;BME280;15053;48.618;10.024;2023-06-22T07:35:03;94279.81;;;23.95;69.31
27643;BME280;15053;48.618;10.024;2023-06-22T07:37:31;94291.28;;;24.06;68.67
27643;BME280;15053;48.618;10.024;2023-06-22T07:39:59;94291.38;;;24.14;68.33
27643;BME280;15053;48.618;10.024;2023-06-22T07:42:26;94285.31;;;24.20;67.79
27643;BME280;15053;48.618;10.024;2023-06-22T07:44:53;94286.53;;;24.30;68.22
27643;BME280;15053;48.618;10.024;2023-06-22T07:47:20;94283.91;;;24.40;68.25
27643;BME280;15053;48.618;10.024;2023-06-22T07:49:51;94293.09;;;24.50;67.27
27643;BME280;15053;48.618;10.024;2023-06-22T07:52:21;94285.47;;;24.48;66.57
27643;BME280;15053;48.618;10.024;2023-06-22T07:54:47;94291.59;;;24.56;67.21
27643;BME280;15053;48.618;10.024;2023-06-22T07:57:14;94284.00;;;24.61;66.86
27643;BME280;15053;48.618;10.024;2023-06-22T07:59:40;94285.91;;;24.64;66.40
27643;BME280;15053;48.618;10.024;2023-06-22T08:02:07;94283.66;;;24.70;66.48
27643;BME280;15053;48.618;10.024;2023-06-22T08:04:35;94276.06;;;24.76;66.28
27643;BME280;15053;48.618;10.024;2023-06-22T08:07:02;94291.72;;;24.81;66.34
27643;BME280;15053;48.618;10.024;2023-06-22T08:09:29;94284.88;;;24.83;66.14
27643;BME280;15053;48.618;10.024;2023-06-22T08:11:56;94295.19;;;24.92;65.88
27643;BME280;15053;48.618;10.024;2023-06-22T08:14:25;94278.06;;;24.93;65.85
27643;BME280;15053;48.618;10.024;2023-06-22T08:16:52;94282.66;;;24.99;66.35
27643;BME280;15053;48.618;10.024;2023-06-22T08:19:18;94280.00;;;25.06;66.18
27643;BME280;15053;48.618;10.024;2023-06-22T08:21:45;94274.31;;;25.15;66.21
27643;BME280;15053;48.618;10.024;2023-06-22T08:24:12;94265.97;;;25.27;66.97
27643;BME280;15053;48.618;10.024;2023-06-22T08:26:39;94263.28;;;25.34;66.45
27643;BME280;15053;48.618;10.024;2023-06-22T08:29:05;94256.84;;;25.35;66.23
27643;BME280;15053;48.618;10.024;2023-06-22T08:31:32;94265.25;;;25.48;65.72
27643;BME280;15053;48.618;10.024;2023-06-22T08:34:00;94260.66;;;25.55;66.28
27643;BME280;15053;48.618;10.024;2023-06-22T08:36:27;94262.19;;;25.63;66.29
27643;BME280;15053;48.618;10.024;2023-06-22T08:38:59;94257.22;;;25.69;66.07
27643;BME280;15053;48.618;10.024;2023-06-22T08:41:28;94251.13;;;25.75;65.80
27643;BME280;15053;48.618;10.024;2023-06-22T08:43:54;94247.72;;;25.78;65.04
27643;BME280;15053;48.618;10.024;2023-06-22T08:46:22;94241.97;;;25.80;64.74
27643;BME280;15053;48.618;10.024;2023-06-22T08:48:51;94243.88;;;25.90;65.46
27643;BME280;15053;48.618;10.024;2023-06-22T08:51:17;94255.31;;;26.01;65.30
27643;BME280;15053;48.618;10.024;2023-06-22T08:53:44;94245.78;;;26.04;63.95
27643;BME280;15053;48.618;10.024;2023-06-22T08:56:11;94254.53;;;26.08;64.26
27643;BME280;15053;48.618;10.024;2023-06-22T08:58:38;94243.84;;;26.18;63.85
27643;BME280;15053;48.618;10.024;2023-06-22T09:01:04;94249.94;;;26.26;63.47
27643;BME280;15053;48.618;10.024;2023-06-22T09:03:31;94240.38;;;26.35;62.91
27643;BME280;15053;48.618;10.024;2023-06-22T09:05:59;94244.91;;;26.46;62.96
27643;BME280;15053;48.618;10.024;2023-06-22T09:08:26;94245.63;;;26.60;63.49
27643;BME280;15053;48.618;10.024;2023-06-22T09:10:52;94248.59;;;26.73;62.66
27643;BME280;15053;48.618;10.024;2023-06-22T09:13:19;94256.66;;;26.80;62.54
27643;BME280;15053;48.618;10.024;2023-06-22T09:15:45;94254.69;;;26.87;62.81
27643;BME280;15053;48.618;10.024;2023-06-22T09:18:13;94252.31;;;27.04;62.25
27643;BME280;15053;48.618;10.024;2023-06-22T09:20:39;94256.84;;;27.14;61.85
27643;BME280;15053;48.618;10.024;2023-06-22T09:23:06;94259.47;;;27.21;61.61
27643;BME280;15053;48.618;10.024;2023-06-22T09:25:32;94256.03;;;27.20;61.52
27643;BME280;15053;48.618;10.024;2023-06-22T09:27:59;94259.81;;;27.30;61.28
27643;BME280;15053;48.618;10.024;2023-06-22T09:30:25;94269.31;;;27.38;61.10
27643;BME280;15053;48.618;10.024;2023-06-22T09:32:52;94277.69;;;27.40;60.42
27643;BME280;15053;48.618;10.024;2023-06-22T09:35:20;94292.53;;;27.55;60.08
27643;BME280;15053;48.618;10.024;2023-06-22T09:37:47;94302.41;;;27.62;60.32
27643;BME280;15053;48.618;10.024;2023-06-22T09:40:13;94292.81;;;27.68;59.80
27643;BME280;15053;48.618;10.024;2023-06-22T09:42:43;94295.00;;;27.83;59.29
27643;BME280;15053;48.618;10.024;2023-06-22T09:45:10;94286.47;;;27.95;59.03
27643;BME280;15053;48.618;10.024;2023-06-22T09:47:36;94293.69;;;28.05;58.82
27643;BME280;15053;48.618;10.024;2023-06-22T09:50:03;94307.75;;;28.17;58.52
27643;BME280;15053;48.618;10.024;2023-06-22T09:52:30;94306.50;;;28.25;58.27
27643;BME280;15053;48.618;10.024;2023-06-22T09:55:12;94307.25;;;28.29;58.03
27643;BME280;15053;48.618;10.024;2023-06-22T09:57:38;94301.47;;;28.34;57.45
27643;BME280;15053;48.618;10.024;2023-06-22T10:00:05;94293.78;;;28.36;56.40
27643;BME280;15053;48.618;10.024;2023-06-22T10:02:35;94304.13;;;28.34;56.86
27643;BME280;15053;48.618;10.024;2023-06-22T10:05:02;94304.13;;;28.34;56.64
27643;BME280;15053;48.618;10.024;2023-06-22T10:07:29;94307.50;;;28.41;57.20
27643;BME280;15053;48.618;10.024;2023-06-22T10:09:55;94304.44;;;28.43;57.60
27643;BME280;15053;48.618;10.024;2023-06-22T10:12:22;94287.19;;;28.44;56.90
27643;BME280;15053;48.618;10.024;2023-06-22T10:14:48;94283.66;;;28.54;56.74
27643;BME280;15053;48.618;10.024;2023-06-22T10:17:15;94284.66;;;28.67;56.03
27643;BME280;15053;48.618;10.024;2023-06-22T10:19:42;94283.31;;;28.82;54.78
27643;BME280;15053;48.618;10.024;2023-06-22T10:22:08;94271.72;;;28.92;53.50
27643;BME280;15053;48.618;10.024;2023-06-22T10:24:35;94271.59;;;29.03;53.55
27643;BME280;15053;48.618;10.024;2023-06-22T10:27:01;94268.75;;;29.13;53.84
27643;BME280;15053;48.618;10.024;2023-06-22T10:29:28;94263.47;;;29.37;54.74
27643;BME280;15053;48.618;10.024;2023-06-22T10:31:54;94256.31;;;29.53;53.55
27643;BME280;15053;48.618;10.024;2023-06-22T10:34:21;94257.19;;;29.70;54.05
27643;BME280;15053;48.618;10.024;2023-06-22T10:36:47;94236.56;;;29.90;53.68
27643;BME280;15053;48.618;10.024;2023-06-22T10:39:15;94240.16;;;30.03;53.50
27643;BME280;15053;48.618;10.024;2023-06-22T10:41:42;94240.16;;;30.03;52.17
27643;BME280;15053;48.618;10.024;2023-06-22T10:44:08;94232.44;;;30.05;52.78
27643;BME280;15053;48.618;10.024;2023-06-22T10:46:35;94239.88;;;30.21;52.43
27643;BME280;15053;48.618;10.024;2023-06-22T10:49:01;94238.03;;;30.37;51.81
27643;BME280;15053;48.618;10.024;2023-06-22T10:51:28;94236.19;;;30.54;51.07
27643;BME280;15053;48.618;10.024;2023-06-22T10:53:55;94233.63;;;30.67;49.65
27643;BME280;15053;48.618;10.024;2023-06-22T10:56:21;94233.41;;;30.77;49.76
27643;BME280;15053;48.618;10.024;2023-06-22T10:58:48;94229.28;;;30.92;48.79
27643;BME280;15053;48.618;10.024;2023-06-22T11:01:14;94226.69;;;31.05;48.60
27643;BME280;15053;48.618;10.024;2023-06-22T11:04:00;94225.63;;;31.19;48.30
27643;BME280;15053;48.618;10.024;2023-06-22T11:06:27;94223.03;;;31.31;49.04
27643;BME280;15053;48.618;10.024;2023-06-22T11:08:54;94227.28;;;31.48;48.61
27643;BME280;15053;48.618;10.024;2023-06-22T11:11:32;94219.69;;;31.60;48.08
27643;BME280;15053;48.618;10.024;2023-06-22T11:13:58;94225.84;;;31.76;47.22
27643;BME280;15053;48.618;10.024;2023-06-22T11:16:25;94227.28;;;31.81;46.95
27643;BME280;15053;48.618;10.024;2023-06-22T11:18:51;94219.34;;;31.74;47.74
27643;BME280;15053;48.618;10.024;2023-06-22T11:21:18;94228.63;;;31.89;45.41
27643;BME280;15053;48.618;10.024;2023-06-22T11:23:45;94232.47;;;31.88;45.89
27643;BME280;15053;48.618;10.024;2023-06-22T11:26:11;94231.81;;;32.00;45.71
27643;BME280;15053;48.618;10.024;2023-06-22T11:28:38;94231.56;;;31.94;45.30
27643;BME280;15053;48.618;10.024;2023-06-22T11:31:04;94229.28;;;31.77;45.17
27643;BME280;15053;48.618;10.024;2023-06-22T11:33:50;94234.84;;;31.53;45.12
27643;BME280;15053;48.618;10.024;2023-06-22T11:36:17;94218.00;;;31.66;45.05
27643;BME280;15053;48.618;10.024;2023-06-22T11:38:44;94214.97;;;31.80;44.38
27643;BME280;15053;48.618;10.024;2023-06-22T11:41:11;94205.84;;;31.90;44.71
27643;BME280;15053;48.618;10.024;2023-06-22T11:43:37;94205.78;;;31.93;44.34
27643;BME280;15053;48.618;10.024;2023-06-22T11:46:04;94199.13;;;31.82;44.26
27643;BME280;15053;48.618;10.024;2023-06-22T11:48:31;94205.22;;;31.53;44.45
27643;BME280;15053;48.618;10.024;2023-06-22T11:50:57;94198.13;;;31.27;45.76
27643;BME280;15053;48.618;10.024;2023-06-22T11:53:26;94200.16;;;31.23;45.60
27643;BME280;15053;48.618;10.024;2023-06-22T11:55:53;94198.44;;;31.29;46.15
27643;BME280;15053;48.618;10.024;2023-06-22T11:58:22;94187.28;;;31.31;46.25
27643;BME280;15053;48.618;10.024;2023-06-22T12:00:49;94189.56;;;31.48;46.32
27643;BME280;15053;48.618;10.024;2023-06-22T12:03:18;94186.28;;;31.57;46.47
27643;BME280;15053;48.618;10.024;2023-06-22T12:05:45;94185.03;;;31.62;46.05
27643;BME280;15053;48.618;10.024;2023-06-22T12:08:12;94181.13;;;31.63;45.60
27643;BME280;15053;48.618;10.024;2023-06-22T12:10:39;94198.88;;;31.44;45.33
27643;BME280;15053;48.618;10.024;2023-06-22T12:13:06;94197.88;;;31.22;46.44
27643;BME280;15053;48.618;10.024;2023-06-22T12:15:32;94210.81;;;30.91;46.72
27643;BME280;15053;48.618;10.024;2023-06-22T12:17:59;94212.31;;;30.76;48.04
27643;BME280;15053;48.618;10.024;2023-06-22T12:20:27;94219.69;;;30.72;48.04
27643;BME280;15053;48.618;10.024;2023-06-22T12:22:54;94212.09;;;30.67;47.95
27643;BME280;15053;48.618;10.024;2023-06-22T12:25:22;94200.78;;;30.75;48.54
27643;BME280;15053;48.618;10.024;2023-06-22T12:27:49;94208.13;;;30.91;48.14
27643;BME280;15053;48.618;10.024;2023-06-22T12:30:16;94193.72;;;31.01;48.37
27643;BME280;15053;48.618;10.024;2023-06-22T12:32:43;94182.97;;;31.01;47.98
27643;BME280;15053;48.618;10.024;2023-06-22T12:35:09;94167.28;;;30.96;48.14
27643;BME280;15053;48.618;10.024;2023-06-22T12:37:41;94167.75;;;30.91;47.38
27643;BME280;15053;48.618;10.024;2023-06-22T12:40:09;94174.81;;;30.85;47.15
27643;BME280;15053;48.618;10.024;2023-06-22T12:42:36;94176.50;;;30.79;46.53
27643;BME280;15053;48.618;10.024;2023-06-22T12:45:03;94167.94;;;30.84;46.57
27643;BME280;15053;48.618;10.024;2023-06-22T12:47:30;94178.75;;;31.00;46.83
27643;BME280;15053;48.618;10.024;2023-06-22T12:49:57;94177.09;;;31.22;45.77
27643;BME280;15053;48.618;10.024;2023-06-22T12:52:24;94177.94;;;31.51;45.30
27643;BME280;15053;48.618;10.024;2023-06-22T12:54:50;94195.28;;;31.67;45.95
27643;BME280;15053;48.618;10.024;2023-06-22T12:57:21;94187.22;;;31.50;45.87
27643;BME280;15053;48.618;10.024;2023-06-22T12:59:48;94178.19;;;31.41;46.16
27643;BME280;15053;48.618;10.024;2023-06-22T13:02:15;94178.69;;;31.36;45.40
27643;BME280;15053;48.618;10.024;2023-06-22T13:04:41;94177.84;;;31.39;45.53
27643;BME280;15053;48.618;10.024;2023-06-22T13:07:09;94176.75;;;31.36;46.41